sensor_id;sensor_type;location;lat;lon;timestamp;P1;durP1;ratioP1;P2;durP2;ratioP2
39482;SDS011;25682;48.438;1.482;2023-04-03T04:57:47;3.90;;;3.33;;
39482;SDS011;25682;48.438;1.482;2023-04-03T05:00:13;11.27;;;8.38;;
39482;SDS011;25682;48.438;1.482;2023-04-03T05:02:39;6.47;;;4.47;;
39482;SDS011;25682;48.438;1.482;2023-04-03T05:05:05;5.82;;;3.85;;
39482;SDS011;25682;48.438;1.482;2023-04-03T05:07:32;10.73;;;4.32;;
39482;SDS011;25682;48.438;1.482;2023-04-03T05:09:58;4.07;;;3.67;;
39482;SDS011;25682;48.438;1.482;2023-04-03T05:12:24;4.43;;;3.33;;
39482;SDS011;25682;48.438;1.482;2023-04-03T05:14:50;4.05;;;2.88;;
39482;SDS011;25682;48.438;1.482;2023-04-03T05:17:16;9.43;;;3.72;;
39482;SDS011;25682;48.438;1.482;2023-04-03T05:19:42;3.55;;;3.10;;
39482;SDS011;25682;48.438;1.482;2023-04-03T05:22:08;5.00;;;3.40;;
39482;SDS011;25682;48.438;1.482;2023-04-03T05:24:34;7.55;;;3.55;;
39482;SDS011;25682;48.438;1.482;2023-04-03T05:27:01;6.88;;;2.90;;
39482;SDS011;25682;48.438;1.482;2023-04-03T05:29:27;6.30;;;3.25;;
39482;SDS011;25682;48.438;1.482;2023-04-03T05:31:53;5.13;;;3.13;;
39482;SDS011;25682;48.438;1.482;2023-04-03T05:34:19;10.80;;;2.47;;
39482;SDS011;25682;48.438;1.482;2023-04-03T05:36:45;6.93;;;4.07;;
39482;SDS011;25682;48.438;1.482;2023-04-03T05:39:11;5.45;;;2.90;;
39482;SDS011;25682;48.438;1.482;2023-04-03T05:41:37;5.50;;;2.55;;
39482;SDS011;25682;48.438;1.482;2023-04-03T05:44:03;5.60;;;2.83;;
39482;SDS011;25682;48.438;1.482;2023-04-03T05:46:29;4.43;;;2.85;;
39482;SDS011;25682;48.438;1.482;2023-04-03T05:48:56;8.52;;;3.33;;
39482;SDS011;25682;48.438;1.482;2023-04-03T05:51:23;4.35;;;2.50;;
39482;SDS011;25682;48.438;1.482;2023-04-03T05:53:52;5.82;;;2.67;;
39482;SDS011;25682;48.438;1.482;2023-04-03T05:56:20;3.42;;;2.80;;
39482;SDS011;25682;48.438;1.482;2023-04-03T05:58:46;3.08;;;2.60;;
39482;SDS011;25682;48.438;1.482;2023-04-03T06:01:12;2.60;;;2.00;;
39482;SDS011;25682;48.438;1.482;2023-04-03T06:03:39;5.95;;;2.50;;
39482;SDS011;25682;48.438;1.482;2023-04-03T06:06:05;4.00;;;2.70;;
39482;SDS011;25682;48.438;1.482;2023-04-03T06:08:32;4.45;;;2.33;;
39482;SDS011;25682;48.438;1.482;2023-04-03T06:10:59;3.47;;;2.58;;
39482;SDS011;25682;48.438;1.482;2023-04-03T06:13:26;3.70;;;2.15;;
39482;SDS011;25682;48.438;1.482;2023-04-03T06:15:53;3.90;;;2.47;;
39482;SDS011;25682;48.438;1.482;2023-04-03T06:18:20;6.30;;;2.25;;
39482;SDS011;25682;48.438;1.482;2023-04-03T06:20:46;7.38;;;2.17;;
39482;SDS011;25682;48.438;1.482;2023-04-03T06:23:12;4.65;;;2.45;;
39482;SDS011;25682;48.438;1.482;2023-04-03T06:25:38;2.55;;;2.20;;
39482;SDS011;25682;48.438;1.482;2023-04-03T06:28:04;11.88;;;2.53;;
39482;SDS011;25682;48.438;1.482;2023-04-03T06:30:30;3.05;;;2.05;;
39482;SDS011;25682;48.438;1.482;2023-04-03T06:32:56;3.95;;;2.20;;
39482;SDS011;25682;48.438;1.482;2023-04-03T06:35:24;3.50;;;2.25;;
39482;SDS011;25682;48.438;1.482;2023-04-03T06:37:51;2.22;;;1.88;;
39482;SDS011;25682;48.438;1.482;2023-04-03T06:40:18;3.55;;;2.00;;
39482;SDS011;25682;48.438;1.482;2023-04-03T06:42:46;3.25;;;2.17;;
39482;SDS011;25682;48.438;1.482;2023-04-03T06:45:12;3.05;;;2.25;;
39482;SDS011;25682;48.438;1.482;2023-04-03T06:47:38;3.15;;;2.17;;
39482;SDS011;25682;48.438;1.482;2023-04-03T06:50:05;3.80;;;1.90;;
39482;SDS011;25682;48.438;1.482;2023-04-03T06:52:32;5.22;;;2.20;;
39482;SDS011;25682;48.438;1.482;2023-04-03T06:54:58;3.53;;;1.98;;
39482;SDS011;25682;48.438;1.482;2023-04-03T06:57:25;4.32;;;2.17;;
39482;SDS011;25682;48.438;1.482;2023-04-03T06:59:51;5.32;;;2.60;;
39482;SDS011;25682;48.438;1.482;2023-04-03T07:02:17;2.50;;;1.80;;
39482;SDS011;25682;48.438;1.482;2023-04-03T07:04:43;2.55;;;1.85;;
39482;SDS011;25682;48.438;1.482;2023-04-03T07:07:09;3.30;;;1.95;;
39482;SDS011;25682;48.438;1.482;2023-04-03T07:09:35;4.32;;;2.47;;
39482;SDS011;25682;48.438;1.482;2023-04-03T07:12:02;4.70;;;2.10;;
39482;SDS011;25682;48.438;1.482;2023-04-03T07:14:28;3.33;;;1.67;;
39482;SDS011;25682;48.438;1.482;2023-04-03T07:16:54;2.30;;;1.90;;
39482;SDS011;25682;48.438;1.482;2023-04-03T07:19:20;2.67;;;2.30;;
39482;SDS011;25682;48.438;1.482;2023-04-03T07:21:46;3.00;;;1.80;;
39482;SDS011;25682;48.438;1.482;2023-04-03T07:24:12;3.00;;;1.80;;
39482;SDS011;25682;48.438;1.482;2023-04-03T07:26:38;2.30;;;1.80;;
39482;SDS011;25682;48.438;1.482;2023-04-03T07:29:04;2.72;;;1.77;;
39482;SDS011;25682;48.438;1.482;2023-04-03T07:31:30;3.05;;;2.10;;
39482;SDS011;25682;48.438;1.482;2023-04-03T07:33:56;2.38;;;1.63;;
39482;SDS011;25682;48.438;1.482;2023-04-03T07:36:22;2.40;;;1.60;;
39482;SDS011;25682;48.438;1.482;2023-04-03T07:38:49;3.45;;;1.40;;
39482;SDS011;25682;48.438;1.482;2023-04-03T07:41:15;1.73;;;1.40;;
39482;SDS011;25682;48.438;1.482;2023-04-03T07:43:42;2.00;;;1.45;;
39482;SDS011;25682;48.438;1.482;2023-04-03T07:46:08;3.28;;;2.50;;
39482;SDS011;25682;48.438;1.482;2023-04-03T07:48:35;2.60;;;1.70;;
39482;SDS011;25682;48.438;1.482;2023-04-03T07:51:02;3.28;;;2.00;;
39482;SDS011;25682;48.438;1.482;2023-04-03T07:53:28;2.55;;;1.67;;
39482;SDS011;25682;48.438;1.482;2023-04-03T07:55:55;2.55;;;2.15;;
39482;SDS011;25682;48.438;1.482;2023-04-03T07:58:22;3.95;;;1.80;;
39482;SDS011;25682;48.438;1.482;2023-04-03T08:00:48;2.72;;;2.15;;
39482;SDS011;25682;48.438;1.482;2023-04-03T08:03:14;3.17;;;1.75;;
39482;SDS011;25682;48.438;1.482;2023-04-03T08:05:45;2.50;;;1.92;;
39482;SDS011;25682;48.438;1.482;2023-04-03T08:08:12;2.55;;;1.80;;
39482;SDS011;25682;48.438;1.482;2023-04-03T08:10:38;2.80;;;1.70;;
39482;SDS011;25682;48.438;1.482;2023-04-03T08:13:04;4.03;;;2.22;;
39482;SDS011;25682;48.438;1.482;2023-04-03T08:15:30;2.35;;;1.58;;
39482;SDS011;25682;48.438;1.482;2023-04-03T08:17:57;3.30;;;1.55;;
39482;SDS011;25682;48.438;1.482;2023-04-03T08:20:23;2.75;;;1.60;;
39482;SDS011;25682;48.438;1.482;2023-04-03T08:22:49;2.25;;;1.45;;
39482;SDS011;25682;48.438;1.482;2023-04-03T08:25:16;2.80;;;1.45;;
39482;SDS011;25682;48.438;1.482;2023-04-03T08:27:42;2.45;;;1.65;;
39482;SDS011;25682;48.438;1.482;2023-04-03T08:30:08;3.28;;;1.83;;
39482;SDS011;25682;48.438;1.482;2023-04-03T08:32:35;2.80;;;1.77;;
39482;SDS011;25682;48.438;1.482;2023-04-03T08:35:02;3.15;;;2.15;;
39482;SDS011;25682;48.438;1.482;2023-04-03T08:37:28;3.17;;;1.77;;
39482;SDS011;25682;48.438;1.482;2023-04-03T08:39:54;9.35;;;1.55;;
39482;SDS011;25682;48.438;1.482;2023-04-03T08:44:53;5.78;;;1.90;;
39482;SDS011;25682;48.438;1.482;2023-04-03T08:47:25;3.25;;;1.40;;
39482;SDS011;25682;48.438;1.482;2023-04-03T08:49:59;2.65;;;1.70;;
39482;SDS011;25682;48.438;1.482;2023-04-03T08:54:58;2.90;;;1.50;;
39482;SDS011;25682;48.438;1.482;2023-04-03T08:57:36;2.50;;;1.65;;
39482;SDS011;25682;48.438;1.482;2023-04-03T09:00:15;2.75;;;1.52;;
39482;SDS011;25682;48.438;1.482;2023-04-03T09:02:52;2.60;;;1.70;;
39482;SDS011;25682;48.438;1.482;2023-04-03T09:05:19;2.50;;;1.55;;
39482;SDS011;25682;48.438;1.482;2023-04-03T09:07:46;2.72;;;1.63;;
39482;SDS011;25682;48.438;1.482;2023-04-03T09:10:13;1.75;;;1.50;;
39482;SDS011;25682;48.438;1.482;2023-04-03T09:15:27;2.50;;;1.10;;
39482;SDS011;25682;48.438;1.482;2023-04-03T09:22:55;2.58;;;1.48;;
39482;SDS011;25682;48.438;1.482;2023-04-03T09:25:22;2.35;;;1.48;;
39482;SDS011;25682;48.438;1.482;2023-04-03T09:27:49;1.85;;;1.35;;
39482;SDS011;25682;48.438;1.482;2023-04-03T09:30:25;1.30;;;1.20;;
39482;SDS011;25682;48.438;1.482;2023-04-03T09:35:19;1.88;;;1.33;;
39482;SDS011;25682;48.438;1.482;2023-04-03T09:37:47;1.98;;;1.30;;
39482;SDS011;25682;48.438;1.482;2023-04-03T09:42:53;3.50;;;1.23;;
39482;SDS011;25682;48.438;1.482;2023-04-03T09:45:23;1.70;;;1.27;;
39482;SDS011;25682;48.438;1.482;2023-04-03T09:47:50;2.15;;;1.45;;
39482;SDS011;25682;48.438;1.482;2023-04-03T09:50:29;2.08;;;1.30;;
39482;SDS011;25682;48.438;1.482;2023-04-03T09:52:55;2.28;;;1.33;;
39482;SDS011;25682;48.438;1.482;2023-04-03T09:55:22;4.15;;;1.63;;
39482;SDS011;25682;48.438;1.482;2023-04-03T09:57:53;1.75;;;1.15;;
39482;SDS011;25682;48.438;1.482;2023-04-03T10:02:46;1.40;;;0.95;;
39482;SDS011;25682;48.438;1.482;2023-04-03T10:05:25;1.45;;;1.05;;
39482;SDS011;25682;48.438;1.482;2023-04-03T10:07:52;2.72;;;1.30;;
39482;SDS011;25682;48.438;1.482;2023-04-03T10:10:19;1.75;;;1.40;;
39482;SDS011;25682;48.438;1.482;2023-04-03T10:12:47;2.00;;;1.35;;
39482;SDS011;25682;48.438;1.482;2023-04-03T10:15:15;1.85;;;1.25;;
39482;SDS011;25682;48.438;1.482;2023-04-03T10:25:17;2.20;;;1.42;;
39482;SDS011;25682;48.438;1.482;2023-04-03T10:28:00;1.20;;;1.00;;
39482;SDS011;25682;48.438;1.482;2023-04-03T10:38:39;1.45;;;1.30;;
39482;SDS011;25682;48.438;1.482;2023-04-03T10:41:13;1.88;;;1.35;;
39482;SDS011;25682;48.438;1.482;2023-04-03T10:46:23;1.67;;;1.15;;
39482;SDS011;25682;48.438;1.482;2023-04-03T10:51:45;2.17;;;1.20;;
39482;SDS011;25682;48.438;1.482;2023-04-03T10:54:16;1.60;;;1.20;;
39482;SDS011;25682;48.438;1.482;2023-04-03T10:56:50;3.05;;;1.50;;
39482;SDS011;25682;48.438;1.482;2023-04-03T10:59:28;1.08;;;0.90;;
39482;SDS011;25682;48.438;1.482;2023-04-03T11:01:58;0.98;;;0.90;;
39482;SDS011;25682;48.438;1.482;2023-04-03T11:04:26;1.70;;;1.17;;
39482;SDS011;25682;48.438;1.482;2023-04-03T11:06:56;2.60;;;1.30;;
39482;SDS011;25682;48.438;1.482;2023-04-03T11:09:25;2.13;;;1.25;;
39482;SDS011;25682;48.438;1.482;2023-04-03T11:11:56;1.92;;;1.30;;
39482;SDS011;25682;48.438;1.482;2023-04-03T11:14:34;1.95;;;1.10;;
39482;SDS011;25682;48.438;1.482;2023-04-03T11:17:05;1.50;;;1.10;;
39482;SDS011;25682;48.438;1.482;2023-04-03T11:19:41;2.33;;;1.20;;
39482;SDS011;25682;48.438;1.482;2023-04-03T11:25:23;2.72;;;1.35;;
39482;SDS011;25682;48.438;1.482;2023-04-03T11:27:58;1.67;;;1.23;;
39482;SDS011;25682;48.438;1.482;2023-04-03T11:32:56;1.77;;;1.50;;
39482;SDS011;25682;48.438;1.482;2023-04-03T11:35:26;2.08;;;1.58;;
39482;SDS011;25682;48.438;1.482;2023-04-03T11:37:53;2.10;;;1.38;;
39482;SDS011;25682;48.438;1.482;2023-04-03T11:42:46;2.25;;;1.35;;
39482;SDS011;25682;48.438;1.482;2023-04-03T11:45:23;2.75;;;1.30;;
39482;SDS011;25682;48.438;1.482;2023-04-03T11:47:50;1.48;;;1.30;;
39482;SDS011;25682;48.438;1.482;2023-04-03T12:03:29;2.97;;;1.43;;
39482;SDS011;25682;48.438;1.482;2023-04-03T12:08:29;1.67;;;1.42;;
39482;SDS011;25682;48.438;1.482;2023-04-03T12:13:35;2.60;;;1.45;;
39482;SDS011;25682;48.438;1.482;2023-04-03T12:16:02;1.73;;;1.35;;
39482;SDS011;25682;48.438;1.482;2023-04-03T12:18:48;1.67;;;1.30;;
39482;SDS011;25682;48.438;1.482;2023-04-03T12:21:21;1.30;;;1.00;;
39482;SDS011;25682;48.438;1.482;2023-04-03T12:24:01;2.25;;;1.58;;
39482;SDS011;25682;48.438;1.482;2023-04-03T12:26:30;1.33;;;1.08;;
39482;SDS011;25682;48.438;1.482;2023-04-03T12:28:56;1.42;;;1.30;;
39482;SDS011;25682;48.438;1.482;2023-04-03T12:31:24;1.92;;;1.40;;
39482;SDS011;25682;48.438;1.482;2023-04-03T12:36:50;1.75;;;1.10;;
39482;SDS011;25682;48.438;1.482;2023-04-03T12:39:25;2.50;;;1.20;;
39482;SDS011;25682;48.438;1.482;2023-04-03T12:47:22;2.53;;;1.75;;
39482;SDS011;25682;48.438;1.482;2023-04-03T12:49:48;2.45;;;1.40;;
39482;SDS011;25682;48.438;1.482;2023-04-03T12:54:44;1.85;;;1.33;;
39482;SDS011;25682;48.438;1.482;2023-04-03T12:59:43;1.70;;;1.20;;
39482;SDS011;25682;48.438;1.482;2023-04-03T13:04:50;1.67;;;1.13;;
39482;SDS011;25682;48.438;1.482;2023-04-03T13:07:20;1.60;;;1.10;;
39482;SDS011;25682;48.438;1.482;2023-04-03T13:09:54;1.00;;;0.90;;
39482;SDS011;25682;48.438;1.482;2023-04-03T13:12:20;1.70;;;1.17;;
39482;SDS011;25682;48.438;1.482;2023-04-03T13:14:57;1.42;;;1.20;;
39482;SDS011;25682;48.438;1.482;2023-04-03T13:17:23;1.23;;;1.02;;
39482;SDS011;25682;48.438;1.482;2023-04-03T13:19:50;2.05;;;1.35;;
39482;SDS011;25682;48.438;1.482;2023-04-03T13:24:46;1.65;;;1.15;;
39482;SDS011;25682;48.438;1.482;2023-04-03T13:27:13;1.48;;;1.15;;
39482;SDS011;25682;48.438;1.482;2023-04-03T13:29:39;2.15;;;1.15;;
39482;SDS011;25682;48.438;1.482;2023-04-03T13:32:05;1.20;;;0.90;;
39482;SDS011;25682;48.438;1.482;2023-04-03T13:34:36;2.13;;;1.48;;
39482;SDS011;25682;48.438;1.482;2023-04-03T13:37:03;1.52;;;1.20;;
39482;SDS011;25682;48.438;1.482;2023-04-03T13:39:30;1.30;;;1.00;;
39482;SDS011;25682;48.438;1.482;2023-04-03T13:41:58;1.35;;;1.00;;
39482;SDS011;25682;48.438;1.482;2023-04-03T13:44:28;1.90;;;1.20;;
39482;SDS011;25682;48.438;1.482;2023-04-03T13:46:55;1.35;;;0.90;;
39482;SDS011;25682;48.438;1.482;2023-04-03T13:49:27;1.60;;;1.20;;
39482;SDS011;25682;48.438;1.482;2023-04-03T13:51:54;1.10;;;1.00;;
39482;SDS011;25682;48.438;1.482;2023-04-03T13:54:24;1.58;;;1.10;;
39482;SDS011;25682;48.438;1.482;2023-04-03T13:56:54;1.10;;;1.00;;
39482;SDS011;25682;48.438;1.482;2023-04-03T13:59:24;1.25;;;1.08;;
39482;SDS011;25682;48.438;1.482;2023-04-03T14:01:52;1.42;;;1.20;;
39482;SDS011;25682;48.438;1.482;2023-04-03T14:04:26;1.27;;;1.00;;
39482;SDS011;25682;48.438;1.482;2023-04-03T14:06:53;1.05;;;0.93;;
39482;SDS011;25682;48.438;1.482;2023-04-03T14:09:20;2.10;;;0.98;;
39482;SDS011;25682;48.438;1.482;2023-04-03T14:11:47;2.17;;;1.00;;
39482;SDS011;25682;48.438;1.482;2023-04-03T14:14:23;1.92;;;1.00;;
39482;SDS011;25682;48.438;1.482;2023-04-03T14:16:53;1.60;;;1.00;;
39482;SDS011;25682;48.438;1.482;2023-04-03T14:19:25;1.40;;;0.93;;
39482;SDS011;25682;48.438;1.482;2023-04-03T14:21:52;1.25;;;1.10;;
39482;SDS011;25682;48.438;1.482;2023-04-03T14:24:18;1.63;;;1.05;;
39482;SDS011;25682;48.438;1.482;2023-04-03T14:26:44;2.67;;;1.20;;
39482;SDS011;25682;48.438;1.482;2023-04-03T14:29:11;1.50;;;1.05;;
39482;SDS011;25682;48.438;1.482;2023-04-03T14:31:38;4.93;;;1.65;;
39482;SDS011;25682;48.438;1.482;2023-04-03T14:34:04;1.20;;;1.00;;
39482;SDS011;25682;48.438;1.482;2023-04-03T14:36:30;5.13;;;1.17;;
39482;SDS011;25682;48.438;1.482;2023-04-03T14:38:56;2.65;;;1.30;;
39482;SDS011;25682;48.438;1.482;2023-04-03T14:41:23;6.63;;;1.48;;
39482;SDS011;25682;48.438;1.482;2023-04-03T14:43:50;3.95;;;1.30;;
39482;SDS011;25682;48.438;1.482;2023-04-03T14:46:37;2.08;;;1.20;;
39482;SDS011;25682;48.438;1.482;2023-04-03T14:49:03;7.43;;;3.50;;
39482;SDS011;25682;48.438;1.482;2023-04-03T14:51:32;11.32;;;8.32;;
39482;SDS011;25682;48.438;1.482;2023-04-03T14:53:58;13.00;;;5.95;;
39482;SDS011;25682;48.438;1.482;2023-04-03T14:56:27;7.47;;;4.18;;
39482;SDS011;25682;48.438;1.482;2023-04-03T14:58:57;7.55;;;4.22;;
39482;SDS011;25682;48.438;1.482;2023-04-03T15:01:24;7.10;;;3.83;;
39482;SDS011;25682;48.438;1.482;2023-04-03T15:03:50;5.60;;;2.97;;
39482;SDS011;25682;48.438;1.482;2023-04-03T15:06:16;6.68;;;3.08;;
39482;SDS011;25682;48.438;1.482;2023-04-03T15:08:42;7.22;;;2.72;;
39482;SDS011;25682;48.438;1.482;2023-04-03T15:11:09;9.38;;;2.95;;
39482;SDS011;25682;48.438;1.482;2023-04-03T15:13:36;5.25;;;2.55;;
39482;SDS011;25682;48.438;1.482;2023-04-03T15:16:02;6.03;;;2.70;;
39482;SDS011;25682;48.438;1.482;2023-04-03T15:18:29;5.53;;;2.75;;
39482;SDS011;25682;48.438;1.482;2023-04-03T15:20:57;7.55;;;2.45;;
39482;SDS011;25682;48.438;1.482;2023-04-03T15:23:23;7.20;;;2.38;;
39482;SDS011;25682;48.438;1.482;2023-04-03T15:25:51;4.32;;;2.20;;
39482;SDS011;25682;48.438;1.482;2023-04-03T15:28:19;5.93;;;2.63;;
39482;SDS011;25682;48.438;1.482;2023-04-03T15:30:47;5.38;;;2.85;;
39482;SDS011;25682;48.438;1.482;2023-04-03T15:33:13;4.20;;;2.17;;
39482;SDS011;25682;48.438;1.482;2023-04-03T15:35:40;3.80;;;1.88;;
39482;SDS011;25682;48.438;1.482;2023-04-03T15:38:07;2.42;;;2.00;;
39482;SDS011;25682;48.438;1.482;2023-04-03T15:40:33;6.30;;;2.92;;
39482;SDS011;25682;48.438;1.482;2023-04-03T15:42:59;2.55;;;1.88;;
39482;SDS011;25682;48.438;1.482;2023-04-03T15:45:26;5.75;;;1.80;;
39482;SDS011;25682;48.438;1.482;2023-04-03T15:47:54;5.65;;;2.05;;
39482;SDS011;25682;48.438;1.482;2023-04-03T15:50:20;5.68;;;2.00;;
39482;SDS011;25682;48.438;1.482;2023-04-03T15:52:48;2.70;;;1.63;;
39482;SDS011;25682;48.438;1.482;2023-04-03T15:55:19;3.33;;;1.90;;
39482;SDS011;25682;48.438;1.482;2023-04-03T15:57:45;2.58;;;1.52;;
39482;SDS011;25682;48.438;1.482;2023-04-03T16:00:11;7.93;;;2.47;;
39482;SDS011;25682;48.438;1.482;2023-04-03T16:02:37;5.75;;;1.58;;
39482;SDS011;25682;48.438;1.482;2023-04-03T16:05:03;8.73;;;2.30;;
39482;SDS011;25682;48.438;1.482;2023-04-03T16:07:30;10.85;;;3.05;;
39482;SDS011;25682;48.438;1.482;2023-04-03T16:09:56;30.75;;;17.33;;
39482;SDS011;25682;48.438;1.482;2023-04-03T16:12:22;35.95;;;21.58;;
39482;SDS011;25682;48.438;1.482;2023-04-03T16:14:48;18.85;;;10.32;;
39482;SDS011;25682;48.438;1.482;2023-04-03T16:17:14;12.32;;;7.95;;
39482;SDS011;25682;48.438;1.482;2023-04-03T16:19:40;16.80;;;10.88;;
39482;SDS011;25682;48.438;1.482;2023-04-03T16:22:06;11.38;;;7.85;;
39482;SDS011;25682;48.438;1.482;2023-04-03T16:24:32;17.63;;;11.68;;
39482;SDS011;25682;48.438;1.482;2023-04-03T16:26:58;16.67;;;11.95;;
39482;SDS011;25682;48.438;1.482;2023-04-03T16:29:24;15.95;;;11.02;;
39482;SDS011;25682;48.438;1.482;2023-04-03T16:31:50;14.18;;;10.23;;
39482;SDS011;25682;48.438;1.482;2023-04-03T16:34:17;13.18;;;9.23;;
39482;SDS011;25682;48.438;1.482;2023-04-03T16:36:43;13.35;;;9.13;;
39482;SDS011;25682;48.438;1.482;2023-04-03T16:39:09;11.73;;;7.93;;
39482;SDS011;25682;48.438;1.482;2023-04-03T16:41:35;14.98;;;9.07;;
39482;SDS011;25682;48.438;1.482;2023-04-03T16:44:01;10.82;;;8.02;;
39482;SDS011;25682;48.438;1.482;2023-04-03T16:46:27;14.70;;;7.95;;
39482;SDS011;25682;48.438;1.482;2023-04-03T16:48:53;12.88;;;8.32;;
39482;SDS011;25682;48.438;1.482;2023-04-03T16:51:19;13.50;;;8.10;;
39482;SDS011;25682;48.438;1.482;2023-04-03T16:53:45;9.80;;;7.65;;
39482;SDS011;25682;48.438;1.482;2023-04-03T16:56:11;9.48;;;6.82;;
39482;SDS011;25682;48.438;1.482;2023-04-03T16:58:37;10.35;;;6.40;;
39482;SDS011;25682;48.438;1.482;2023-04-03T17:01:10;8.88;;;5.65;;
39482;SDS011;25682;48.438;1.482;2023-04-03T17:03:36;13.27;;;6.13;;
39482;SDS011;25682;48.438;1.482;2023-04-03T17:06:02;9.38;;;5.88;;
39482;SDS011;25682;48.438;1.482;2023-04-03T17:08:28;10.88;;;5.78;;
39482;SDS011;25682;48.438;1.482;2023-04-03T17:10:54;15.30;;;6.43;;
39482;SDS011;25682;48.438;1.482;2023-04-03T17:13:20;12.68;;;5.30;;
39482;SDS011;25682;48.438;1.482;2023-04-03T17:15:46;7.88;;;4.70;;
39482;SDS011;25682;48.438;1.482;2023-04-03T17:18:12;10.05;;;4.82;;
39482;SDS011;25682;48.438;1.482;2023-04-03T17:20:38;13.00;;;5.50;;
39482;SDS011;25682;48.438;1.482;2023-04-03T17:23:04;20.73;;;4.63;;
39482;SDS011;25682;48.438;1.482;2023-04-03T17:25:31;8.43;;;4.93;;
39482;SDS011;25682;48.438;1.482;2023-04-03T17:27:57;6.38;;;3.97;;
39482;SDS011;25682;48.438;1.482;2023-04-03T17:30:23;6.80;;;4.03;;
39482;SDS011;25682;48.438;1.482;2023-04-03T17:32:49;8.55;;;3.40;;
39482;SDS011;25682;48.438;1.482;2023-04-03T17:35:15;10.85;;;3.90;;
39482;SDS011;25682;48.438;1.482;2023-04-03T17:37:41;5.60;;;3.13;;
39482;SDS011;25682;48.438;1.482;2023-04-03T17:40:07;4.60;;;3.15;;
39482;SDS011;25682;48.438;1.482;2023-04-03T17:42:33;4.93;;;2.75;;
39482;SDS011;25682;48.438;1.482;2023-04-03T17:44:59;4.75;;;2.78;;
39482;SDS011;25682;48.438;1.482;2023-04-03T17:47:25;9.20;;;3.38;;
39482;SDS011;25682;48.438;1.482;2023-04-03T17:49:51;6.25;;;3.03;;
39482;SDS011;25682;48.438;1.482;2023-04-03T17:52:17;9.40;;;3.20;;
39482;SDS011;25682;48.438;1.482;2023-04-03T17:54:43;7.20;;;2.72;;
39482;SDS011;25682;48.438;1.482;2023-04-03T17:57:10;5.15;;;3.28;;
39482;SDS011;25682;48.438;1.482;2023-04-03T17:59:36;4.47;;;2.65;;
39482;SDS011;25682;48.438;1.482;2023-04-03T18:02:02;6.30;;;3.28;;
39482;SDS011;25682;48.438;1.482;2023-04-03T18:04:28;8.27;;;2.53;;
39482;SDS011;25682;48.438;1.482;2023-04-03T18:06:55;6.60;;;2.35;;
39482;SDS011;25682;48.438;1.482;2023-04-03T18:09:24;6.25;;;2.58;;
39482;SDS011;25682;48.438;1.482;2023-04-03T18:11:51;5.03;;;2.50;;
39482;SDS011;25682;48.438;1.482;2023-04-03T18:14:18;5.63;;;2.42;;
39482;SDS011;25682;48.438;1.482;2023-04-03T18:16:46;7.38;;;4.00;;
39482;SDS011;25682;48.438;1.482;2023-04-03T18:19:12;15.63;;;6.38;;
39482;SDS011;25682;48.438;1.482;2023-04-03T18:21:38;6.72;;;4.30;;
39482;SDS011;25682;48.438;1.482;2023-04-03T18:24:05;9.60;;;3.83;;
39482;SDS011;25682;48.438;1.482;2023-04-03T18:26:32;7.70;;;2.92;;
39482;SDS011;25682;48.438;1.482;2023-04-03T18:29:01;5.88;;;3.17;;
39482;SDS011;25682;48.438;1.482;2023-04-03T18:31:29;5.10;;;2.58;;
39482;SDS011;25682;48.438;1.482;2023-04-03T18:33:56;5.80;;;3.42;;
39482;SDS011;25682;48.438;1.482;2023-04-03T18:36:23;4.57;;;3.03;;
39482;SDS011;25682;48.438;1.482;2023-04-03T18:38:50;5.63;;;2.78;;
39482;SDS011;25682;48.438;1.482;2023-04-03T18:41:16;7.10;;;2.88;;
39482;SDS011;25682;48.438;1.482;2023-04-03T18:43:42;9.88;;;3.58;;
39482;SDS011;25682;48.438;1.482;2023-04-03T18:46:08;9.52;;;3.17;;
39482;SDS011;25682;48.438;1.482;2023-04-03T18:48:35;12.63;;;3.08;;
39482;SDS011;25682;48.438;1.482;2023-04-03T18:51:05;8.85;;;2.60;;
39482;SDS011;25682;48.438;1.482;2023-04-03T18:53:31;8.27;;;2.55;;
39482;SDS011;25682;48.438;1.482;2023-04-03T18:55:57;16.25;;;3.40;;
39482;SDS011;25682;48.438;1.482;2023-04-03T18:58:23;12.88;;;2.95;;
39482;SDS011;25682;48.438;1.482;2023-04-03T19:00:49;4.15;;;2.20;;
39482;SDS011;25682;48.438;1.482;2023-04-03T19:03:15;5.15;;;2.95;;
39482;SDS011;25682;48.438;1.482;2023-04-03T19:05:41;12.02;;;2.90;;
39482;SDS011;25682;48.438;1.482;2023-04-03T19:08:07;7.00;;;2.38;;
39482;SDS011;25682;48.438;1.482;2023-04-03T19:10:33;11.38;;;2.60;;
39482;SDS011;25682;48.438;1.482;2023-04-03T19:12:59;3.85;;;2.63;;
39482;SDS011;25682;48.438;1.482;2023-04-03T19:15:25;6.10;;;1.98;;
39482;SDS011;25682;48.438;1.482;2023-04-03T19:17:51;4.82;;;2.08;;
39482;SDS011;25682;48.438;1.482;2023-04-03T19:20:17;6.93;;;2.53;;
39482;SDS011;25682;48.438;1.482;2023-04-03T19:22:43;5.88;;;3.05;;
39482;SDS011;25682;48.438;1.482;2023-04-03T19:25:10;7.93;;;2.53;;
39482;SDS011;25682;48.438;1.482;2023-04-03T19:27:37;4.90;;;2.00;;
39482;SDS011;25682;48.438;1.482;2023-04-03T19:30:04;6.57;;;2.38;;
39482;SDS011;25682;48.438;1.482;2023-04-03T19:32:30;8.35;;;1.92;;
39482;SDS011;25682;48.438;1.482;2023-04-03T19:34:56;8.20;;;2.67;;
39482;SDS011;25682;48.438;1.482;2023-04-03T19:37:23;4.93;;;2.00;;
39482;SDS011;25682;48.438;1.482;2023-04-03T19:39:49;3.80;;;2.30;;
39482;SDS011;25682;48.438;1.482;2023-04-03T19:42:15;5.15;;;1.80;;
39482;SDS011;25682;48.438;1.482;2023-04-03T19:44:43;5.03;;;2.40;;
39482;SDS011;25682;48.438;1.482;2023-04-03T19:47:09;4.97;;;2.00;;
39482;SDS011;25682;48.438;1.482;2023-04-03T19:49:36;8.95;;;2.65;;
39482;SDS011;25682;48.438;1.482;2023-04-03T19:52:02;5.25;;;2.00;;
39482;SDS011;25682;48.438;1.482;2023-04-03T19:54:28;4.43;;;2.00;;
39482;SDS011;25682;48.438;1.482;2023-04-03T19:56:55;5.28;;;2.05;;
39482;SDS011;25682;48.438;1.482;2023-04-03T19:59:21;4.25;;;2.22;;
39482;SDS011;25682;48.438;1.482;2023-04-03T20:01:47;5.25;;;2.00;;
39482;SDS011;25682;48.438;1.482;2023-04-03T20:04:13;6.25;;;2.25;;
39482;SDS011;25682;48.438;1.482;2023-04-03T20:06:39;4.88;;;1.55;;
39482;SDS011;25682;48.438;1.482;2023-04-03T20:09:05;4.80;;;2.05;;
39482;SDS011;25682;48.438;1.482;2023-04-03T20:11:35;5.43;;;2.38;;
39482;SDS011;25682;48.438;1.482;2023-04-03T20:14:01;3.38;;;2.20;;
39482;SDS011;25682;48.438;1.482;2023-04-03T20:16:27;3.90;;;2.42;;
39482;SDS011;25682;48.438;1.482;2023-04-03T20:18:53;4.25;;;2.20;;
39482;SDS011;25682;48.438;1.482;2023-04-03T20:21:20;6.88;;;2.38;;
39482;SDS011;25682;48.438;1.482;2023-04-03T20:23:47;3.55;;;2.30;;
39482;SDS011;25682;48.438;1.482;2023-04-03T20:26:19;5.40;;;2.45;;
39482;SDS011;25682;48.438;1.482;2023-04-03T20:28:48;4.30;;;2.67;;
39482;SDS011;25682;48.438;1.482;2023-04-03T20:31:14;5.63;;;2.70;;
39482;SDS011;25682;48.438;1.482;2023-04-03T20:33:41;4.68;;;2.80;;
39482;SDS011;25682;48.438;1.482;2023-04-03T20:36:07;4.63;;;2.47;;
39482;SDS011;25682;48.438;1.482;2023-04-03T20:38:33;6.28;;;2.42;;
39482;SDS011;25682;48.438;1.482;2023-04-03T20:40:59;7.28;;;2.35;;
39482;SDS011;25682;48.438;1.482;2023-04-03T20:43:25;5.75;;;2.40;;
39482;SDS011;25682;48.438;1.482;2023-04-03T20:45:52;3.58;;;1.95;;
39482;SDS011;25682;48.438;1.482;2023-04-03T20:48:18;4.03;;;2.00;;
39482;SDS011;25682;48.438;1.482;2023-04-03T20:50:44;4.55;;;2.75;;
39482;SDS011;25682;48.438;1.482;2023-04-03T20:53:11;4.28;;;1.75;;
39482;SDS011;25682;48.438;1.482;2023-04-03T20:55:37;3.85;;;2.05;;
39482;SDS011;25682;48.438;1.482;2023-04-03T20:58:03;4.38;;;1.90;;
39482;SDS011;25682;48.438;1.482;2023-04-03T21:00:29;5.00;;;1.90;;
39482;SDS011;25682;48.438;1.482;2023-04-03T21:02:56;3.90;;;2.25;;
